.
WxDataArchive / Data Records for 2014-05-20
2014-05-19 May 2014 2014-05-21

Data Records for Tuesday, 20 May 2014

Time	Temp	Chill	HIndex	Humid	Dewpt	 Wind 	HiWind	WindDir	Rain 	Barom
-----	----	-----	------	-----	-----	------	------	-------	-----	-----
00:00	60.1	60.1	60.1	58	45.3	0	1	90	0.00	30.088 
00:05	59.8	59.8	59.8	58	45.0	0	0	---	0.00	30.088 
00:10	59.6	59.6	59.6	60	45.7	0	0	---	0.00	30.088 
00:15	59.3	59.3	59.3	60	45.4	0	0	---	0.00	30.104 
00:20	59.2	59.2	59.2	62	46.2	0	0	---	0.00	30.104 
00:25	58.9	58.9	58.9	62	45.9	0	0	---	0.00	30.104 
00:30	58.7	58.7	58.7	65	47.0	0	0	---	0.00	30.111 
00:35	58.6	58.6	58.6	66	47.3	0	0	---	0.00	30.111 
00:40	58.4	58.4	58.4	68	47.9	0	0	---	0.00	30.111 
00:45	58.3	58.3	58.3	69	48.2	0	0	---	0.00	30.112 
00:50	58.1	58.1	58.1	67	47.2	0	1	90	0.00	30.112 
00:55	58.1	58.1	58.1	64	46.0	0	1	90	0.00	30.112 
01:00	58.1	58.1	58.1	62	45.1	0	1	90	0.00	30.096 
01:05	58.3	58.3	58.3	62	45.3	0	1	90	0.00	30.096 
01:10	58.3	58.3	58.3	61	44.9	0	2	90	0.00	30.096 
01:15	58.3	58.3	58.3	62	45.3	0	2	90	0.00	30.095 
01:20	58.3	58.3	58.3	62	45.3	0	0	---	0.00	30.095 
01:25	58.0	58.0	58.0	63	45.5	0	0	---	0.00	30.095 
01:30	57.6	57.6	57.6	64	45.5	0	0	---	0.00	30.098 
01:35	57.3	57.3	57.3	64	45.2	0	1	90	0.00	30.098 
01:40	57.2	57.2	57.2	65	45.5	0	0	---	0.00	30.098 
01:45	56.9	56.9	56.9	65	45.3	0	0	---	0.00	30.109 
01:50	56.6	56.6	56.6	67	45.8	0	0	---	0.00	30.109 
01:55	56.6	56.6	56.6	68	46.2	0	0	---	0.00	30.109 
02:00	56.5	56.5	56.5	67	45.7	0	1	90	0.00	30.107 
02:05	56.6	56.6	56.6	67	45.8	0	1	90	0.00	30.107 
02:10	56.6	56.6	56.6	67	45.8	0	1	90	0.00	30.107 
02:15	56.7	56.7	56.7	66	45.5	0	1	90	0.00	30.096 
02:20	56.7	56.7	56.7	65	45.1	0	2	90	0.00	30.096 
02:25	56.9	56.9	56.9	65	45.3	0	2	90	0.00	30.096 
02:30	57.0	57.0	57.0	65	45.4	0	2	90	0.00	30.090 
02:35	57.0	57.0	57.0	65	45.4	0	2	90	0.00	30.090 
02:40	57.2	57.2	57.2	64	45.1	1	4	90	0.00	30.090 
02:45	57.2	57.2	57.2	64	45.1	1	3	90	0.00	30.080 
02:50	57.2	57.2	57.2	64	45.1	0	2	90	0.00	30.080 
02:55	57.0	57.0	57.0	64	44.9	0	1	90	0.00	30.080 
03:00	57.0	57.0	57.0	64	44.9	0	1	90	0.00	30.072 
03:05	57.0	57.0	57.0	64	44.9	0	1	90	0.00	30.072 
03:10	57.0	57.0	57.0	64	44.9	0	2	90	0.00	30.072 
03:15	57.0	57.0	57.0	63	44.5	0	1	90	0.00	30.060 
03:20	56.9	56.9	56.9	62	44.0	0	3	90	0.00	30.060 
03:25	57.0	57.0	57.0	62	44.1	0	1	90	0.00	30.060 
03:30	57.0	57.0	57.0	62	44.1	0	1	90	0.00	30.048 
03:35	57.0	57.0	57.0	62	44.1	0	2	90	0.00	30.048 
03:40	57.2	57.2	57.2	60	43.4	1	2	90	0.00	30.048 
03:45	57.3	57.3	57.3	60	43.5	0	2	90	0.00	30.046 
03:50	57.5	57.5	57.5	59	43.3	1	3	90	0.00	30.046 
03:55	57.6	57.6	57.6	59	43.4	0	3	90	0.00	30.046 
04:00	57.8	57.8	57.8	59	43.6	1	2	135	0.00	30.033 
04:05	57.8	57.8	57.8	59	43.6	0	2	135	0.00	30.033 
04:10	57.8	57.8	57.8	59	43.6	0	3	135	0.00	30.033 
04:15	57.8	57.8	57.8	59	43.6	1	4	135	0.00	30.028 
04:20	58.0	58.0	58.0	60	44.2	1	3	135	0.00	30.028 
04:25	58.0	58.0	58.0	59	43.8	0	2	112	0.00	30.028 
04:30	58.1	58.1	58.1	58	43.4	1	3	135	0.00	30.022 
04:35	58.1	58.1	58.1	58	43.4	1	4	135	0.00	30.022 
04:40	58.3	58.3	58.3	58	43.6	1	4	90	0.00	30.022 
04:45	58.4	58.4	58.4	58	43.7	1	5	135	0.00	30.017 
04:50	58.4	58.4	58.4	57	43.2	1	4	112	0.00	30.017 
04:55	58.4	58.4	58.4	59	44.1	1	4	112	0.00	30.017 
05:00	58.3	58.3	58.3	63	45.8	1	3	112	0.00	30.010 
05:05	57.8	57.8	57.8	65	46.1	0	2	112	0.00	30.010 
05:10	57.3	57.3	57.3	66	46.0	0	2	112	0.00	30.010 
05:15	57.0	57.0	57.0	67	46.2	0	1	112	0.00	30.005 
05:20	56.9	56.9	56.9	69	46.8	0	1	112	0.00	30.005 
05:25	56.6	56.6	56.6	68	46.2	0	2	112	0.00	30.005 
05:30	56.6	56.6	56.6	68	46.2	0	2	112	0.00	29.999 
05:35	56.6	56.6	56.6	69	46.5	0	2	112	0.00	29.999 
05:40	56.6	56.6	56.6	68	46.2	0	1	112	0.00	29.999 
05:45	56.7	56.7	56.7	68	46.3	0	1	112	0.00	29.999 
05:50	56.7	56.7	56.7	68	46.3	0	2	112	0.00	29.999 
05:55	56.7	56.7	56.7	67	45.9	0	2	112	0.00	29.999 
06:00	56.9	56.9	56.9	66	45.7	0	3	112	0.00	29.994 
06:05	57.0	57.0	57.0	64	44.9	0	3	112	0.00	29.994 
06:10	57.3	57.3	57.3	60	43.5	1	2	112	0.00	29.994 
06:15	57.8	57.8	57.8	59	43.6	1	3	112	0.00	29.988 
06:20	58.3	58.3	58.3	56	42.7	2	5	90	0.00	29.988 
06:25	58.7	58.7	58.7	57	43.5	1	5	112	0.00	29.988 
06:30	59.0	59.0	59.0	55	42.9	2	9	90	0.00	29.984 
06:35	59.2	59.2	59.2	54	42.6	1	5	135	0.00	29.984 
06:40	59.3	59.3	59.3	54	42.7	1	4	112	0.00	29.984 
06:45	59.3	59.3	59.3	54	42.7	1	5	90	0.00	29.984 
06:50	59.3	59.3	59.3	55	43.1	1	4	90	0.00	29.984 
06:55	59.3	59.3	59.3	55	43.1	0	2	90	0.00	29.984 
07:00	59.3	59.3	59.3	55	43.1	1	4	112	0.00	29.983 
07:05	59.3	59.3	59.3	56	43.6	1	3	68	0.00	29.983 
07:10	59.2	59.2	59.2	56	43.5	1	4	90	0.00	29.983 
07:15	59.0	59.0	59.0	57	43.8	1	4	90	0.00	29.984 
07:20	59.0	59.0	59.0	57	43.8	1	3	90	0.00	29.984 
07:25	58.9	58.9	58.9	57	43.7	1	4	90	0.00	29.984 
07:30	59.0	59.0	59.0	58	44.2	1	4	90	0.00	29.974 
07:35	59.0	59.0	59.0	58	44.2	1	4	112	0.00	29.974 
07:40	59.0	59.0	59.0	58	44.2	1	3	112	0.00	29.974 
07:45	59.0	59.0	59.0	57	43.8	1	4	112	0.00	29.976 
07:50	59.2	59.2	59.2	58	44.4	1	6	112	0.00	29.976 
07:55	59.3	59.3	59.3	58	44.5	1	4	90	0.00	29.976 
08:00	59.5	59.5	59.5	57	44.3	1	3	112	0.00	29.973 
08:05	59.6	59.6	59.6	57	44.3	1	2	112	0.00	29.973 
08:10	59.8	59.8	59.8	58	45.0	1	4	112	0.00	29.973 
08:15	59.9	59.9	59.9	58	45.1	0	2	112	0.00	29.982 
08:20	60.2	60.2	60.2	58	45.4	0	2	112	0.00	29.982 
08:25	60.4	60.4	60.4	58	45.6	1	2	112	0.00	29.982 
08:30	60.5	60.5	60.5	58	45.6	1	6	112	0.00	29.975 
08:35	60.5	60.5	60.5	58	45.6	1	3	112	0.00	29.975 
08:40	60.5	60.5	60.5	58	45.6	1	4	112	0.00	29.975 
08:45	60.5	60.5	60.5	58	45.6	0	2	112	0.00	29.970 
08:50	60.5	60.5	60.5	59	46.1	0	2	112	0.00	29.970 
08:55	60.5	60.5	60.5	60	46.5	0	1	112	0.00	29.970 
09:00	60.9	60.9	60.9	60	46.9	0	3	112	0.00	29.968 
09:05	61.8	61.8	61.8	59	47.3	0	3	112	0.00	29.968 
09:10	62.9	62.9	62.9	60	48.8	1	3	112	0.00	29.968 
09:15	63.9	63.9	63.9	58	48.8	1	4	112	0.00	29.963 
09:20	64.7	64.7	64.7	58	49.6	1	4	90	0.00	29.963 
09:25	65.5	65.5	65.5	59	50.8	1	3	90	0.00	29.963 
09:30	66.0	66.0	66.0	58	50.8	1	4	68	0.00	29.960 
09:35	66.4	66.4	66.4	58	51.2	1	4	68	0.00	29.960 
09:40	66.9	66.9	66.9	58	51.6	1	5	68	0.00	29.960 
09:45	67.1	67.1	67.1	58	51.8	1	5	248	0.00	29.958 
09:50	67.1	67.1	67.1	58	51.8	1	6	248	0.00	29.958 
09:55	67.3	67.3	67.3	59	52.5	1	5	270	0.00	29.958 
10:00	67.8	67.8	67.8	61	53.9	0	3	68	0.00	29.954 
10:05	68.3	68.3	68.3	59	53.4	1	3	45	0.00	29.954 
10:10	68.8	68.8	68.8	58	53.4	1	4	90	0.00	29.954 
10:15	69.1	69.1	69.1	59	54.2	0	2	90	0.00	29.951 
10:20	69.4	69.4	69.4	58	54.0	0	2	90	0.00	29.951 
10:25	69.6	69.6	69.6	58	54.2	1	5	90	0.00	29.951 
10:30	69.6	69.6	69.6	59	54.6	1	3	248	0.00	29.948 
10:35	69.4	69.4	69.4	60	54.9	1	4	248	0.00	29.948 
10:40	69.9	69.9	69.9	59	54.9	1	3	270	0.00	29.948 
10:45	70.1	70.1	70.1	59	55.1	1	4	270	0.00	29.944 
10:50	70.4	70.4	70.4	60	55.8	1	2	0	0.00	29.944 
10:55	70.8	70.8	70.8	61	56.7	1	3	315	0.00	29.944 
11:00	70.8	70.8	70.8	60	56.2	1	4	292	0.00	29.933 
11:05	70.6	70.6	70.6	61	56.5	1	3	292	0.00	29.933 
11:10	70.9	70.9	70.9	63	57.7	0	2	292	0.00	29.933 
11:15	71.6	71.6	71.6	62	57.9	1	4	292	0.00	29.930 
11:20	71.8	71.8	71.8	61	57.6	1	3	270	0.00	29.930 
11:25	71.5	71.5	71.5	61	57.3	0	2	270	0.00	29.930 
11:30	70.9	70.9	70.9	62	57.2	1	4	270	0.00	29.930 
11:35	70.8	70.8	70.8	62	57.1	1	4	270	0.00	29.930 
11:40	70.6	70.6	70.6	63	57.4	1	5	270	0.00	29.930 
11:45	70.6	70.6	70.6	64	57.8	1	3	248	0.00	29.930 
11:50	70.9	70.9	70.9	64	58.1	0	2	248	0.00	29.930 
11:55	71.1	71.1	71.1	63	57.9	1	3	248	0.00	29.930 
12:00	71.3	71.3	71.3	63	58.0	1	4	248	0.00	29.929 
12:05	71.6	71.6	71.6	63	58.3	1	3	292	0.00	29.929 
12:10	72.0	72.0	72.0	63	58.7	1	3	292	0.00	29.929 
12:15	72.1	72.1	72.1	62	58.3	1	4	292	0.00	29.924 
12:20	72.3	72.3	72.3	63	59.0	1	4	270	0.00	29.924 
12:25	72.7	72.7	72.7	64	59.8	1	3	270	0.00	29.924 
12:30	73.0	73.0	73.0	62	59.2	1	3	270	0.00	29.918 
12:35	73.2	73.2	73.2	61	58.9	1	4	270	0.00	29.918 
12:40	73.5	73.5	73.5	62	59.7	1	3	270	0.00	29.918 
12:45	73.9	73.9	73.9	62	60.0	1	3	270	0.00	29.913 
12:50	74.2	74.2	74.2	62	60.3	1	4	270	0.00	29.913 
12:55	74.4	74.4	74.4	61	60.1	1	3	270	0.00	29.913 
13:00	74.6	74.6	74.6	60	59.8	1	5	90	0.00	29.910 
13:05	74.7	74.7	74.7	61	60.3	1	2	90	0.00	29.910 
13:10	74.9	74.9	74.9	59	59.6	1	5	270	0.00	29.910 
13:15	74.9	74.9	74.9	59	59.6	1	4	248	0.00	29.910 
13:20	75.1	75.1	77.5	59	59.8	1	3	248	0.00	29.910 
13:25	75.6	75.6	77.7	61	61.2	0	4	90	0.00	29.910 
13:30	75.8	75.8	77.9	58	59.9	1	3	248	0.00	29.907 
13:35	76.0	76.0	78.0	59	60.6	1	3	248	0.00	29.907 
13:40	76.5	76.5	78.4	59	61.1	1	4	248	0.00	29.907 
13:45	76.8	76.8	78.6	59	61.4	1	3	338	0.00	29.901 
13:50	77.2	77.2	78.9	59	61.7	1	4	315	0.00	29.901 
13:55	77.4	77.4	79.1	58	61.4	1	5	270	0.00	29.901 
14:00	77.6	77.6	79.2	58	61.6	1	5	90	0.00	29.898 
14:05	77.7	77.7	79.4	61	63.2	0	2	90	0.00	29.898 
14:10	78.1	78.1	79.7	59	62.6	1	4	292	0.00	29.898 
14:15	78.3	78.3	79.8	56	61.3	1	4	292	0.00	29.894 
14:20	78.5	78.5	79.9	55	61.0	1	3	270	0.00	29.894 
14:25	78.6	78.6	80.1	57	62.1	1	3	270	0.00	29.894 
14:30	79.0	79.0	80.3	55	61.4	1	3	270	0.00	29.888 
14:35	79.0	79.0	80.3	54	60.9	1	4	45	0.00	29.888 
14:40	79.2	79.2	80.5	55	61.6	0	2	270	0.00	29.888 
14:45	79.6	79.6	80.9	55	62.0	1	3	270	0.00	29.887 
14:50	79.8	79.8	81.2	56	62.7	1	4	22	0.00	29.887 
14:55	79.8	79.8	81.2	56	62.7	1	7	90	0.00	29.887 
15:00	79.8	79.8	81.0	54	61.7	1	5	270	0.00	29.881 
15:05	79.6	79.6	80.9	55	62.0	2	5	270	0.00	29.881 
15:10	80.1	80.1	81.3	54	61.9	1	4	270	0.00	29.881 
15:15	80.5	80.5	81.7	54	62.3	1	4	248	0.00	29.881 
15:20	80.5	80.5	81.6	53	61.8	1	3	248	0.00	29.881 
15:25	80.7	80.7	81.7	52	61.4	1	4	248	0.00	29.881 
15:30	80.7	80.7	81.8	53	62.0	1	3	248	0.00	29.879 
15:35	80.7	80.7	82.0	55	63.0	1	3	45	0.00	29.879 
15:40	80.7	80.7	81.8	53	62.0	1	3	270	0.00	29.879 
15:45	81.1	81.1	82.3	54	62.9	1	4	68	0.00	29.878 
15:50	81.1	81.1	82.1	52	61.8	1	5	270	0.00	29.878 
15:55	81.1	81.1	82.1	52	61.8	1	3	248	0.00	29.878 
16:00	80.9	80.9	81.8	51	61.0	1	4	248	0.00	29.882 
16:05	80.5	80.5	81.6	53	61.8	1	6	248	0.00	29.882 
16:10	80.5	80.5	81.5	52	61.2	2	6	90	0.00	29.882 
16:15	80.5	80.5	81.6	53	61.8	1	3	270	0.00	29.882 
16:20	80.9	80.9	82.1	54	62.7	1	2	270	0.00	29.882 
16:25	81.2	81.2	82.3	53	62.4	1	3	270	0.00	29.882 
16:30	81.4	81.4	82.4	52	62.1	1	3	270	0.00	29.881 
16:35	81.2	81.2	82.3	53	62.4	0	2	270	0.00	29.881 
16:40	80.9	80.9	82.1	54	62.7	1	4	270	0.00	29.881 
16:45	81.2	81.2	82.2	52	61.9	1	6	270	0.00	29.879 
16:50	81.6	81.6	82.3	50	61.1	1	3	270	0.00	29.879 
16:55	81.8	81.8	83.0	53	63.0	1	6	270	0.00	29.879 
17:00	82.0	82.0	83.2	53	63.2	0	3	0	0.00	29.874 
17:05	81.8	81.8	82.6	50	61.3	1	3	248	0.00	29.874 
17:10	82.0	82.0	82.8	50	61.5	1	3	248	0.00	29.874 
17:15	82.0	82.0	82.6	49	60.9	1	3	202	0.00	29.871 
17:20	81.8	81.8	82.6	50	61.3	1	3	202	0.00	29.871 
17:25	81.8	81.8	82.4	49	60.7	1	4	90	0.00	29.871 
17:30	82.0	82.0	82.6	49	60.9	1	4	248	0.00	29.877 
17:35	81.8	81.8	82.4	49	60.7	1	3	248	0.00	29.877 
17:40	81.8	81.8	82.6	50	61.3	1	5	270	0.00	29.877 
17:45	81.4	81.4	82.3	51	61.5	0	2	270	0.00	29.882 
17:50	81.2	81.2	82.1	51	61.3	1	2	270	0.00	29.882 
17:55	81.6	81.6	82.2	49	60.6	1	3	248	0.00	29.882 
18:00	81.8	81.8	82.6	50	61.3	1	4	248	0.00	29.880 
18:05	81.4	81.4	82.0	49	60.4	1	4	292	0.00	29.880 
18:10	81.2	81.2	82.1	51	61.3	0	2	292	0.00	29.880 
18:15	81.4	81.4	82.1	50	60.9	1	3	292	0.00	29.876 
18:20	81.2	81.2	81.7	48	59.6	0	2	338	0.00	29.876 
18:25	81.1	81.1	81.8	50	60.7	0	3	338	0.00	29.876 
18:30	80.7	80.7	81.4	50	60.3	0	2	338	0.00	29.877 
18:35	80.5	80.5	81.3	50	60.1	0	2	338	0.00	29.877 
18:40	80.5	80.5	81.4	51	60.7	0	2	338	0.00	29.877 
18:45	80.3	80.3	81.2	51	60.5	0	2	338	0.00	29.877 
18:50	80.1	80.1	81.0	51	60.3	1	3	315	0.00	29.877 
18:55	80.1	80.1	81.1	52	60.9	0	3	0	0.00	29.877 
19:00	80.1	80.1	81.2	53	61.4	1	3	315	0.00	29.869 
19:05	79.9	79.9	80.9	52	60.7	1	4	292	0.00	29.869 
19:10	79.8	79.8	80.8	52	60.6	1	3	292	0.00	29.869 
19:15	79.8	79.8	80.9	53	61.1	1	3	270	0.00	29.865 
19:20	79.8	79.8	80.9	53	61.1	0	2	292	0.00	29.865 
19:25	79.6	79.6	80.6	52	60.4	1	3	292	0.00	29.865 
19:30	79.6	79.6	80.7	53	60.9	0	2	292	0.00	29.863 
19:35	79.6	79.6	80.7	53	60.9	0	3	292	0.00	29.863 
19:40	79.4	79.4	80.5	53	60.8	1	4	292	0.00	29.863 
19:45	79.4	79.4	80.5	53	60.8	0	1	292	0.00	29.868 
19:50	79.2	79.2	80.4	54	61.1	0	3	292	0.00	29.868 
19:55	79.0	79.0	80.3	54	60.9	1	3	292	0.00	29.868 
20:00	78.8	78.8	80.1	54	60.7	0	3	0	0.00	29.866 
20:05	78.8	78.8	80.1	54	60.7	0	2	0	0.00	29.866 
20:10	78.5	78.5	79.9	55	61.0	0	2	338	0.00	29.866 
20:15	78.3	78.3	79.7	55	60.8	0	1	338	0.00	29.863 
20:20	78.1	78.1	79.6	56	61.1	0	1	338	0.00	29.863 
20:25	77.9	77.9	79.4	56	60.9	0	2	338	0.00	29.863 
20:30	77.6	77.6	79.2	57	61.1	0	3	338	0.00	29.873 
20:35	77.4	77.4	79.1	58	61.4	0	1	338	0.00	29.873 
20:40	77.2	77.2	78.9	58	61.3	0	1	338	0.00	29.873 
20:45	77.0	77.0	78.8	58	61.1	0	2	338	0.00	29.874 
20:50	77.0	77.0	78.8	58	61.1	0	1	338	0.00	29.874 
20:55	77.0	77.0	78.8	58	61.1	0	1	338	0.00	29.874 
21:00	77.0	77.0	78.8	59	61.6	0	1	338	0.00	29.872 
21:05	76.8	76.8	78.6	59	61.4	0	1	338	0.00	29.872 
21:10	76.7	76.7	78.5	59	61.3	0	0	---	0.00	29.872 
21:15	76.5	76.5	78.4	60	61.6	0	1	338	0.00	29.871 
21:20	76.3	76.3	78.2	61	61.8	0	0	---	0.00	29.871 
21:25	76.0	76.0	78.0	61	61.6	0	0	---	0.00	29.871 
21:30	75.6	75.6	77.7	62	61.6	0	0	---	0.00	29.870 
21:35	75.3	75.3	77.4	63	61.8	0	0	---	0.00	29.870 
21:40	74.9	74.9	74.9	64	61.9	0	1	338	0.00	29.870 
21:45	74.7	74.7	74.7	64	61.7	0	0	---	0.00	29.878 
21:50	74.6	74.6	74.6	65	62.0	0	0	---	0.00	29.878 
21:55	74.2	74.2	74.2	65	61.7	0	0	---	0.00	29.878 
22:00	74.0	74.0	74.0	66	61.9	0	0	---	0.00	29.877 
22:05	73.9	73.9	73.9	67	62.2	0	0	---	0.00	29.877 
22:10	73.9	73.9	73.9	68	62.7	0	1	338	0.00	29.877 
22:15	73.7	73.7	73.7	68	62.5	0	1	338	0.00	29.867 
22:20	73.5	73.5	73.5	69	62.7	0	0	---	0.00	29.867 
22:25	73.5	73.5	73.5	69	62.7	0	1	338	0.00	29.867 
22:30	73.7	73.7	73.7	68	62.5	0	2	338	0.00	29.868 
22:35	73.7	73.7	73.7	68	62.5	0	1	338	0.00	29.868 
22:40	73.9	73.9	73.9	68	62.7	0	0	---	0.00	29.868 
22:45	73.9	73.9	73.9	67	62.2	0	2	338	0.00	29.874 
22:50	73.9	73.9	73.9	67	62.2	0	1	338	0.00	29.874 
22:55	74.0	74.0	74.0	67	62.3	0	1	338	0.00	29.874 
23:00	73.9	73.9	73.9	67	62.2	0	1	338	0.00	29.878 
23:05	73.9	73.9	73.9	67	62.2	0	1	338	0.00	29.878 
23:10	73.7	73.7	73.7	68	62.5	0	1	338	0.00	29.878 
23:15	73.5	73.5	73.5	68	62.3	0	1	338	0.00	29.866 
23:20	73.3	73.3	73.3	69	62.5	0	1	338	0.00	29.866 
23:25	73.2	73.2	73.2	69	62.4	0	2	338	0.00	29.866 
23:30	73.2	73.2	73.2	69	62.4	0	1	338	0.00	29.862 
23:35	73.2	73.2	73.2	69	62.4	0	1	338	0.00	29.862 
23:40	73.2	73.2	73.2	69	62.4	0	1	338	0.00	29.862 
23:45	73.2	73.2	73.2	69	62.4	0	1	338	0.00	29.885 
23:50	73.2	73.2	73.2	69	62.4	0	2	338	0.00	29.885 
23:55	73.2	73.2	73.2	69	62.4	0	0	---	0.00	29.885 

CoCoRaHS
IN-AL-39
A2 Web Hosting
Creative Commons License
GoDaddy
search engine by freefind advanced

loaded 2018-11-17 00:08:33 • last modified 2010-11-18 10:43:29
Privacy PolicyDisclaimer
• wx.awcolley.com is powered by PmWiki v.2002016 •
• all content (unless otherwise noted) © 2018 A W Colley